Time;durP1;ratioP1;P1;durP2;ratioP2;P2;SDS_P1;SDS_P2;PMS_P1;PMS_P2;Temp;Humidity;BMP_temperature;BMP_pressure;BME280_temperature;BME280_humidity;BME280_pressure;Samples;Min_cycle;Max_cycle;Signal;HPM_P1;HPM_P2
2023/03/25 00:03:08;;;;;;;3.17;1.33;;;;;;;;;;6289340;22;20162;-90
2023/03/25 00:06:13;;;;;;;2.35;1.60;;;;;;;;;;6289062;22;20166;-91
2023/03/25 00:09:18;;;;;;;5.03;1.80;;;;;;;;;;6289940;22;20208;-92
2023/03/25 00:12:25;;;;;;;1.92;1.30;;;;;;;;;;6288912;22;20185;-90
2023/03/25 00:15:32;;;;;;;6.72;3.58;;;;;;;;;;6269629;22;20165;-91
2023/03/25 00:18:37;;;;;;;4.05;1.83;;;;;;;;;;6270406;22;20169;-91
2023/03/25 00:25:31;;;;;;;4.45;2.15;;;;;;;;;;6287378;22;20608;-89
2023/03/25 00:28:38;;;;;;;5.20;1.90;;;;;;;;;;6288064;22;20169;-93
2023/03/25 00:31:43;;;;;;;7.07;2.65;;;;;;;;;;6287734;22;20157;-91
2023/03/25 00:34:48;;;;;;;5.57;2.47;;;;;;;;;;6288500;22;20240;-90
2023/03/25 00:37:58;;;;;;;8.38;2.97;;;;;;;;;;6286954;22;20520;-89
2023/03/25 00:41:16;;;;;;;3.63;1.92;;;;;;;;;;6287686;22;20212;-89
2023/03/25 00:44:22;;;;;;;3.15;1.60;;;;;;;;;;6287865;22;20543;-88
2023/03/25 00:47:28;;;;;;;10.63;4.20;;;;;;;;;;6288114;22;20194;-89
2023/03/25 00:50:33;;;;;;;7.07;3.15;;;;;;;;;;6289904;22;20234;-91
2023/03/25 00:53:38;;;;;;;6.18;2.53;;;;;;;;;;6289959;22;20213;-91
2023/03/25 00:56:43;;;;;;;6.82;2.40;;;;;;;;;;6288150;22;20201;-89
2023/03/25 00:59:50;;;;;;;6.00;1.80;;;;;;;;;;6289971;22;20186;-89
2023/03/25 01:03:23;;;;;;;3.97;1.73;;;;;;;;;;6270357;22;20200;-90
2023/03/25 01:06:28;;;;;;;1.38;1.10;;;;;;;;;;6290414;22;20599;-89
2023/03/25 01:09:35;;;;;;;2.55;1.42;;;;;;;;;;6289764;22;20178;-90
2023/03/25 01:12:40;;;;;;;3.85;1.40;;;;;;;;;;6289041;22;20178;-90
2023/03/25 01:15:47;;;;;;;6.70;2.70;;;;;;;;;;6290110;22;20241;-91
2023/03/25 01:18:53;;;;;;;3.63;1.70;;;;;;;;;;6289309;22;20169;-90
2023/03/25 01:22:13;;;;;;;4.35;1.80;;;;;;;;;;6287586;22;20173;-91
2023/03/25 01:25:20;;;;;;;8.57;3.40;;;;;;;;;;6270482;22;20538;-90
2023/03/25 01:28:25;;;;;;;6.63;2.53;;;;;;;;;;6287639;22;20146;-90
2023/03/25 01:31:32;;;;;;;5.57;1.95;;;;;;;;;;6289502;22;20153;-91
2023/03/25 01:34:38;;;;;;;3.40;1.80;;;;;;;;;;6291114;22;20185;-89
2023/03/25 01:37:45;;;;;;;4.55;1.25;;;;;;;;;;6272463;22;20301;-90
2023/03/25 01:40:51;;;;;;;5.75;1.80;;;;;;;;;;6292512;22;20239;-88
2023/03/25 01:44:04;;;;;;;7.05;2.85;;;;;;;;;;6291301;22;20170;-90
2023/03/25 01:47:12;;;;;;;4.80;1.95;;;;;;;;;;6290832;22;20197;-91
2023/03/25 01:50:20;;;;;;;4.05;2.30;;;;;;;;;;6274937;22;20173;-91
2023/03/25 01:53:27;;;;;;;6.32;1.90;;;;;;;;;;6292548;22;20166;-89
2023/03/25 01:56:36;;;;;;;7.57;2.20;;;;;;;;;;6272956;22;20169;-91
2023/03/25 01:59:41;;;;;;;4.28;1.88;;;;;;;;;;6272970;22;20181;-89
2023/03/25 02:02:53;;;;;;;4.20;1.95;;;;;;;;;;6290796;22;20146;-91
2023/03/25 02:06:02;;;;;;;5.53;2.15;;;;;;;;;;6272574;22;20183;-91
2023/03/25 02:09:10;;;;;;;8.70;2.90;;;;;;;;;;6290422;22;20492;-90
2023/03/25 02:12:16;;;;;;;9.77;3.60;;;;;;;;;;6290277;22;20238;-88
2023/03/25 02:15:21;;;;;;;13.02;4.13;;;;;;;;;;6289250;22;20181;-90
2023/03/25 02:18:36;;;;;;;8.32;2.60;;;;;;;;;;6287698;22;20192;-90
2023/03/25 02:21:57;;;;;;;6.68;2.88;;;;;;;;;;6269958;22;20167;-92
2023/03/25 02:25:21;;;;;;;2.83;1.48;;;;;;;;;;6270004;22;20765;-93
2023/03/25 02:28:35;;;;;;;5.95;1.60;;;;;;;;;;6288496;22;20178;-90
2023/03/25 02:31:55;;;;;;;2.25;1.40;;;;;;;;;;6288762;22;20170;-90
2023/03/25 02:35:15;;;;;;;3.58;1.10;;;;;;;;;;6288764;22;20165;-90
2023/03/25 02:38:27;;;;;;;3.05;1.38;;;;;;;;;;6288206;22;20236;-89
2023/03/25 02:41:39;;;;;;;1.77;1.10;;;;;;;;;;6288333;22;20166;-89
2023/03/25 02:44:48;;;;;;;2.30;1.45;;;;;;;;;;6287824;22;20166;-91
2023/03/25 02:47:55;;;;;;;2.35;1.30;;;;;;;;;;6288822;22;20504;-92
2023/03/25 02:51:02;;;;;;;4.40;1.60;;;;;;;;;;6270368;22;20165;-90
2023/03/25 02:54:10;;;;;;;4.00;1.98;;;;;;;;;;6288836;22;20176;-89
2023/03/25 02:57:17;;;;;;;4.57;1.92;;;;;;;;;;6287806;22;20184;-88
2023/03/25 03:00:25;;;;;;;4.93;2.22;;;;;;;;;;6289160;22;20173;-91
2023/03/25 03:03:31;;;;;;;6.70;2.42;;;;;;;;;;6288650;22;20166;-90
2023/03/25 03:06:40;;;;;;;10.93;2.75;;;;;;;;;;6271406;22;20624;-90
2023/03/25 03:09:50;;;;;;;7.03;2.28;;;;;;;;;;6287667;22;20166;-89
2023/03/25 03:13:00;;;;;;;10.82;2.47;;;;;;;;;;6271022;22;20153;-91
2023/03/25 03:16:10;;;;;;;7.38;2.50;;;;;;;;;;6289491;22;20486;-89
2023/03/25 03:19:22;;;;;;;3.13;1.52;;;;;;;;;;6287899;22;20220;-92
2023/03/25 03:22:34;;;;;;;3.63;1.45;;;;;;;;;;6286529;22;20170;-91
2023/03/25 03:25:46;;;;;;;6.82;2.92;;;;;;;;;;6271231;22;20244;-90
2023/03/25 03:28:55;;;;;;;6.30;2.63;;;;;;;;;;6289089;22;20174;-91
2023/03/25 03:32:03;;;;;;;5.57;2.60;;;;;;;;;;6289502;22;20285;-90
2023/03/25 03:35:10;;;;;;;8.88;3.22;;;;;;;;;;6288161;22;20174;-88
2023/03/25 03:38:18;;;;;;;4.72;1.95;;;;;;;;;;6288847;22;20194;-89
2023/03/25 03:41:27;;;;;;;23.77;8.30;;;;;;;;;;6289494;22;20173;-91
2023/03/25 03:44:33;;;;;;;15.52;5.45;;;;;;;;;;6289581;22;20325;-91
2023/03/25 03:47:40;;;;;;;4.97;2.47;;;;;;;;;;6272134;22;20189;-90
2023/03/25 03:50:49;;;;;;;5.25;1.40;;;;;;;;;;6290853;22;20165;-90
2023/03/25 03:53:57;;;;;;;7.97;3.03;;;;;;;;;;6290263;22;20285;-90
2023/03/25 03:57:06;;;;;;;9.63;3.30;;;;;;;;;;6271198;22;20162;-90
2023/03/25 04:00:14;;;;;;;7.30;2.60;;;;;;;;;;6288990;22;20231;-91
2023/03/25 04:03:27;;;;;;;3.08;1.70;;;;;;;;;;6287593;22;20174;-89
2023/03/25 04:06:34;;;;;;;3.28;1.45;;;;;;;;;;6269156;22;20197;-90
2023/03/25 04:09:42;;;;;;;3.67;1.80;;;;;;;;;;6287600;22;20193;-90
2023/03/25 04:12:51;;;;;;;4.63;2.08;;;;;;;;;;6289004;22;20185;-90
2023/03/25 04:15:59;;;;;;;4.32;1.88;;;;;;;;;;6270431;22;20217;-90
2023/03/25 04:19:05;;;;;;;3.35;1.42;;;;;;;;;;6287493;22;20194;-90
2023/03/25 04:22:17;;;;;;;4.40;1.40;;;;;;;;;;6268376;22;20166;-90
2023/03/25 04:25:24;;;;;;;2.20;1.10;;;;;;;;;;6288271;22;20212;-89
2023/03/25 04:28:31;;;;;;;4.03;1.58;;;;;;;;;;6289416;22;20170;-89
2023/03/25 04:31:45;;;;;;;3.88;1.23;;;;;;;;;;6289577;22;20161;-89
2023/03/25 04:34:50;;;;;;;3.17;1.08;;;;;;;;;;6290125;22;20166;-89
2023/03/25 04:37:56;;;;;;;5.35;1.50;;;;;;;;;;6288731;22;20193;-91
2023/03/25 04:41:05;;;;;;;5.20;1.38;;;;;;;;;;6272465;22;20209;-90
2023/03/25 04:44:12;;;;;;;4.80;2.08;;;;;;;;;;6290502;22;20174;-92
2023/03/25 04:47:18;;;;;;;3.75;1.60;;;;;;;;;;6273271;22;20169;-91
2023/03/25 04:50:24;;;;;;;6.40;1.85;;;;;;;;;;6290367;22;20167;-89
2023/03/25 04:53:30;;;;;;;3.45;1.50;;;;;;;;;;6290402;22;20174;-91
2023/03/25 04:56:35;;;;;;;3.75;1.60;;;;;;;;;;6290589;22;20240;-93
2023/03/25 04:59:42;;;;;;;6.57;2.00;;;;;;;;;;6290216;22;20193;-88
2023/03/25 05:02:50;;;;;;;4.80;1.33;;;;;;;;;;6289506;22;20491;-92
2023/03/25 05:05:55;;;;;;;4.07;1.77;;;;;;;;;;6271480;22;20165;-89
2023/03/25 05:09:03;;;;;;;5.95;1.95;;;;;;;;;;6287429;22;20678;-90
2023/03/25 05:12:10;;;;;;;2.55;1.10;;;;;;;;;;6289551;22;20158;-89
2023/03/25 05:15:19;;;;;;;5.20;1.70;;;;;;;;;;6288584;22;20181;-91
2023/03/25 05:18:25;;;;;;;6.47;1.67;;;;;;;;;;6289291;22;20194;-90
2023/03/25 05:21:36;;;;;;;6.15;1.20;;;;;;;;;;6288919;22;20248;-91
2023/03/25 05:24:43;;;;;;;5.15;1.50;;;;;;;;;;6288210;22;20165;-90
2023/03/25 05:27:49;;;;;;;7.43;1.90;;;;;;;;;;6288540;22;20170;-89
2023/03/25 05:30:55;;;;;;;3.80;1.08;;;;;;;;;;6270659;22;20252;-90
2023/03/25 05:34:00;;;;;;;7.03;1.42;;;;;;;;;;6290445;22;20196;-87
2023/03/25 05:37:05;;;;;;;3.55;1.30;;;;;;;;;;6289552;22;20185;-90
2023/03/25 05:40:11;;;;;;;9.05;1.58;;;;;;;;;;6289275;22;20166;-89
2023/03/25 05:43:21;;;;;;;9.27;1.67;;;;;;;;;;6272069;22;20154;-88
2023/03/25 05:46:29;;;;;;;4.43;1.50;;;;;;;;;;6289131;22;20170;-90
2023/03/25 05:49:34;;;;;;;4.88;1.17;;;;;;;;;;6289712;22;20178;-90
2023/03/25 05:52:40;;;;;;;7.90;1.52;;;;;;;;;;6289885;22;20293;-90
2023/03/25 05:55:49;;;;;;;4.63;1.23;;;;;;;;;;6289277;22;20162;-89
2023/03/25 05:58:55;;;;;;;5.05;1.10;;;;;;;;;;6288933;22;20189;-89
2023/03/25 06:02:02;;;;;;;4.45;1.10;;;;;;;;;;6269734;22;20169;-93
2023/03/25 06:05:08;;;;;;;4.97;1.15;;;;;;;;;;6290268;22;20512;-92
2023/03/25 06:08:15;;;;;;;5.70;1.40;;;;;;;;;;6288676;22;20189;-91
2023/03/25 06:11:21;;;;;;;4.18;1.17;;;;;;;;;;6289944;22;20173;-90
2023/03/25 06:14:54;;;;;;;4.07;1.20;;;;;;;;;;6288028;22;20157;-89
2023/03/25 06:18:00;;;;;;;4.30;1.27;;;;;;;;;;6289058;22;20220;-91
2023/03/25 06:21:07;;;;;;;6.90;1.50;;;;;;;;;;6288646;22;20174;-91
2023/03/25 06:24:12;;;;;;;7.25;1.00;;;;;;;;;;6289310;22;20208;-88
2023/03/25 06:27:19;;;;;;;5.90;1.35;;;;;;;;;;6286111;22;20495;-89
2023/03/25 06:30:24;;;;;;;5.10;1.50;;;;;;;;;;6269780;22;20234;-91
2023/03/25 06:33:30;;;;;;;3.42;0.90;;;;;;;;;;6287561;22;20186;-90
2023/03/25 06:36:36;;;;;;;3.20;0.93;;;;;;;;;;6269669;22;20170;-90
2023/03/25 06:39:45;;;;;;;4.78;1.05;;;;;;;;;;6270194;22;20264;-89
2023/03/25 06:42:56;;;;;;;4.00;1.02;;;;;;;;;;6288754;22;20166;-89
2023/03/25 06:46:04;;;;;;;5.30;1.63;;;;;;;;;;6289943;22;20224;-90
2023/03/25 06:49:30;;;;;;;5.13;0.88;;;;;;;;;;6288847;22;20178;-90
2023/03/25 06:52:36;;;;;;;6.47;1.17;;;;;;;;;;6289208;22;20285;-90
2023/03/25 06:55:43;;;;;;;3.65;1.23;;;;;;;;;;6286422;22;20166;-90
2023/03/25 06:58:48;;;;;;;7.30;1.10;;;;;;;;;;6287624;22;20240;-90
2023/03/25 07:01:55;;;;;;;8.45;1.25;;;;;;;;;;6286028;22;20169;-90
2023/03/25 07:05:02;;;;;;;3.58;1.08;;;;;;;;;;6287876;22;20583;-92
2023/03/25 07:08:08;;;;;;;11.73;1.40;;;;;;;;;;6289209;22;20281;-91
2023/03/25 07:11:14;;;;;;;4.28;1.15;;;;;;;;;;6270215;22;20162;-90
2023/03/25 07:14:20;;;;;;;5.35;1.20;;;;;;;;;;6287788;22;20170;-89
2023/03/25 07:17:25;;;;;;;2.90;0.98;;;;;;;;;;6288308;22;20166;-92
2023/03/25 07:20:32;;;;;;;3.05;1.05;;;;;;;;;;6288369;22;20173;-90
2023/03/25 07:23:37;;;;;;;1.63;0.75;;;;;;;;;;6288971;22;20161;-91
2023/03/25 07:26:42;;;;;;;4.30;1.50;;;;;;;;;;6270435;22;20245;-91
2023/03/25 07:29:49;;;;;;;6.07;0.95;;;;;;;;;;6287845;22;20158;-89
2023/03/25 07:32:57;;;;;;;6.13;1.70;;;;;;;;;;6288315;22;20197;-89
2023/03/25 07:36:04;;;;;;;6.22;1.30;;;;;;;;;;6289810;22;20217;-92
2023/03/25 07:39:09;;;;;;;4.88;1.10;;;;;;;;;;6270880;22;20655;-92
2023/03/25 07:42:14;;;;;;;4.43;1.20;;;;;;;;;;6288226;22;20197;-90
2023/03/25 07:45:49;;;;;;;6.15;1.20;;;;;;;;;;6288987;22;20221;-90
2023/03/25 07:48:59;;;;;;;6.50;1.10;;;;;;;;;;6287324;22;20664;-91
2023/03/25 07:52:05;;;;;;;4.55;1.00;;;;;;;;;;6288911;22;20173;-90
2023/03/25 07:55:11;;;;;;;15.02;4.43;;;;;;;;;;6289156;22;20169;-89
2023/03/25 07:58:16;;;;;;;7.43;1.25;;;;;;;;;;6287112;22;20154;-87
2023/03/25 08:01:21;;;;;;;5.13;0.70;;;;;;;;;;6287531;22;20173;-90
2023/03/25 08:04:26;;;;;;;4.93;1.00;;;;;;;;;;6287670;22;20204;-90
2023/03/25 08:07:34;;;;;;;4.22;0.93;;;;;;;;;;6288078;22;20169;-89
2023/03/25 08:10:39;;;;;;;5.35;1.20;;;;;;;;;;6288534;22;20246;-91
2023/03/25 08:13:44;;;;;;;3.30;1.60;;;;;;;;;;6288064;22;20186;-88
2023/03/25 08:16:49;;;;;;;4.80;1.35;;;;;;;;;;6289276;22;20170;-91
2023/03/25 08:19:57;;;;;;;6.07;1.00;;;;;;;;;;6290295;22;20197;-90
2023/03/25 08:23:09;;;;;;;3.75;0.90;;;;;;;;;;6289915;22;20214;-90
2023/03/25 08:26:15;;;;;;;2.55;0.80;;;;;;;;;;6290682;22;20242;-89
2023/03/25 08:29:20;;;;;;;4.32;0.93;;;;;;;;;;6289347;22;20177;-89
2023/03/25 08:32:26;;;;;;;4.68;0.85;;;;;;;;;;6289442;22;20195;-88
2023/03/25 08:35:31;;;;;;;5.25;1.00;;;;;;;;;;6290408;22;20173;-91
2023/03/25 08:38:38;;;;;;;5.38;0.90;;;;;;;;;;6288958;22;20163;-91
2023/03/25 08:41:46;;;;;;;4.15;0.75;;;;;;;;;;6289669;22;20170;-91
2023/03/25 08:44:51;;;;;;;2.83;0.73;;;;;;;;;;6288553;22;20594;-90
2023/03/25 08:47:57;;;;;;;9.35;1.08;;;;;;;;;;6288467;22;20169;-94
2023/03/25 08:51:02;;;;;;;4.18;0.82;;;;;;;;;;6288247;22;20166;-91
2023/03/25 08:54:13;;;;;;;3.35;0.80;;;;;;;;;;6292383;22;20218;-91
2023/03/25 08:57:18;;;;;;;3.80;1.10;;;;;;;;;;6287592;22;20215;-89
2023/03/25 09:00:26;;;;;;;5.05;1.45;;;;;;;;;;6287541;22;20263;-89
2023/03/25 09:03:33;;;;;;;4.25;1.08;;;;;;;;;;6288973;22;20171;-92
2023/03/25 09:06:39;;;;;;;3.03;0.80;;;;;;;;;;6292177;22;20174;-89
2023/03/25 09:09:46;;;;;;;3.53;1.10;;;;;;;;;;6290668;22;20248;-91
2023/03/25 09:12:51;;;;;;;3.88;1.23;;;;;;;;;;6288891;22;20477;-90
2023/03/25 09:15:58;;;;;;;4.18;0.90;;;;;;;;;;6287003;22;20261;-87
2023/03/25 09:19:03;;;;;;;4.60;1.30;;;;;;;;;;6289135;22;20201;-91
2023/03/25 09:22:12;;;;;;;6.85;1.90;;;;;;;;;;6287732;22;20166;-89
2023/03/25 09:25:18;;;;;;;3.83;1.05;;;;;;;;;;6288399;22;20165;-93
2023/03/25 09:28:24;;;;;;;2.13;0.90;;;;;;;;;;6289143;22;20170;-91
2023/03/25 09:31:29;;;;;;;3.55;0.88;;;;;;;;;;6269494;22;20166;-90
2023/03/25 09:34:34;;;;;;;2.65;0.90;;;;;;;;;;6286917;22;20188;-91
2023/03/25 09:37:39;;;;;;;3.42;0.90;;;;;;;;;;6289058;22;20555;-89
2023/03/25 09:40:46;;;;;;;1.75;0.80;;;;;;;;;;6291626;22;20193;-90
2023/03/25 09:43:57;;;;;;;2.38;0.88;;;;;;;;;;6274232;22;20219;-92
2023/03/25 09:47:03;;;;;;;12.18;1.20;;;;;;;;;;6273107;22;20210;-90
2023/03/25 09:50:24;;;;;;;1.23;0.70;;;;;;;;;;6287552;22;20281;-92
2023/03/25 09:53:32;;;;;;;1.75;0.68;;;;;;;;;;6268847;22;20205;-91
2023/03/25 09:56:38;;;;;;;9.05;1.00;;;;;;;;;;6288533;22;20165;-91
2023/03/25 09:59:48;;;;;;;2.80;0.85;;;;;;;;;;6293284;22;20321;-89
2023/03/25 10:03:03;;;;;;;2.75;0.80;;;;;;;;;;6291257;22;20174;-91
2023/03/25 10:06:27;;;;;;;2.33;0.80;;;;;;;;;;6293136;22;20142;-91
2023/03/25 10:09:46;;;;;;;2.42;0.80;;;;;;;;;;6274563;22;20153;-90
2023/03/25 10:13:07;;;;;;;1.60;0.90;;;;;;;;;;6292287;22;20168;-90
2023/03/25 10:16:17;;;;;;;2.45;0.90;;;;;;;;;;6295529;22;20206;-93
2023/03/25 10:19:28;;;;;;;2.47;0.75;;;;;;;;;;6293073;22;20260;-92
2023/03/25 10:23:04;;;;;;;1.98;0.70;;;;;;;;;;6292792;22;20166;-91
2023/03/25 10:26:13;;;;;;;1.63;0.80;;;;;;;;;;6293415;22;20170;-92
2023/03/25 10:29:21;;;;;;;3.28;0.70;;;;;;;;;;6292758;22;20173;-91
2023/03/25 10:32:31;;;;;;;1.48;0.80;;;;;;;;;;6291941;22;20166;-92
2023/03/25 10:35:40;;;;;;;2.72;0.70;;;;;;;;;;6291821;22;20166;-91
2023/03/25 10:38:50;;;;;;;4.57;0.80;;;;;;;;;;6292522;22;20169;-92
2023/03/25 10:41:57;;;;;;;1.45;0.57;;;;;;;;;;6275531;22;20162;-92
2023/03/25 10:45:19;;;;;;;3.45;0.80;;;;;;;;;;6294715;22;20181;-92
2023/03/25 10:48:27;;;;;;;1.63;0.80;;;;;;;;;;6292945;22;20605;-89
2023/03/25 10:51:33;;;;;;;2.28;0.60;;;;;;;;;;6295151;22;20500;-91
2023/03/25 10:54:42;;;;;;;2.65;0.65;;;;;;;;;;6275960;22;20162;-89
2023/03/25 10:57:50;;;;;;;2.45;0.80;;;;;;;;;;6293679;22;20205;-91
2023/03/25 11:04:34;;;;;;;1.27;0.70;;;;;;;;;;6276798;22;20169;-92
2023/03/25 11:07:42;;;;;;;1.85;0.77;;;;;;;;;;6292061;22;20242;-89
2023/03/25 11:10:50;;;;;;;3.17;0.70;;;;;;;;;;6292550;22;20212;-89
2023/03/25 11:14:04;;;;;;;0.80;0.70;;;;;;;;;;6293923;22;20234;-89
2023/03/25 11:17:13;;;;;;;3.60;0.80;;;;;;;;;;6292444;22;20219;-90
2023/03/25 11:20:30;;;;;;;5.38;1.40;;;;;;;;;;6295072;22;20212;-88
2023/03/25 11:23:37;;;;;;;3.10;0.80;;;;;;;;;;6293365;22;20213;-90
2023/03/25 11:26:43;;;;;;;1.67;0.68;;;;;;;;;;6293531;22;20150;-91
2023/03/25 11:29:52;;;;;;;3.95;1.05;;;;;;;;;;6292503;22;20193;-92
2023/03/25 11:32:59;;;;;;;3.05;0.90;;;;;;;;;;6293416;22;20190;-89
2023/03/25 11:36:15;;;;;;;1.65;0.70;;;;;;;;;;6290550;22;20166;-90
2023/03/25 11:39:26;;;;;;;5.00;0.80;;;;;;;;;;6290700;22;20221;-89
2023/03/25 11:42:32;;;;;;;2.80;0.60;;;;;;;;;;6273188;22;20165;-88
2023/03/25 11:45:39;;;;;;;3.42;0.85;;;;;;;;;;6290351;22;20208;-88
2023/03/25 11:48:45;;;;;;;2.35;0.70;;;;;;;;;;6291217;22;20170;-90
2023/03/25 11:51:58;;;;;;;3.35;0.80;;;;;;;;;;6290774;22;20169;-89
2023/03/25 11:55:08;;;;;;;1.92;0.63;;;;;;;;;;6290446;22;20186;-89
2023/03/25 11:58:16;;;;;;;1.75;0.75;;;;;;;;;;6289753;22;20226;-91
2023/03/25 12:01:24;;;;;;;1.95;0.70;;;;;;;;;;6272131;22;20197;-91
2023/03/25 12:04:30;;;;;;;0.75;0.60;;;;;;;;;;6291979;22;20204;-91
2023/03/25 12:07:46;;;;;;;1.77;1.05;;;;;;;;;;6291576;22;20170;-92
2023/03/25 12:10:54;;;;;;;1.60;0.77;;;;;;;;;;6291005;22;20214;-88
2023/03/25 12:14:16;;;;;;;1.25;0.70;;;;;;;;;;6291586;22;20170;-90
2023/03/25 12:17:28;;;;;;;1.67;0.80;;;;;;;;;;6290727;22;20621;-88
2023/03/25 12:20:38;;;;;;;2.30;0.80;;;;;;;;;;6271345;22;20305;-89
2023/03/25 12:23:50;;;;;;;2.90;1.13;;;;;;;;;;6292593;22;20157;-86
2023/03/25 12:27:03;;;;;;;1.80;0.63;;;;;;;;;;6291167;22;20515;-90
2023/03/25 12:30:15;;;;;;;1.58;0.70;;;;;;;;;;6292986;22;20212;-90
2023/03/25 12:33:36;;;;;;;3.55;0.90;;;;;;;;;;6292080;22;20221;-90
2023/03/25 12:36:48;;;;;;;1.02;0.60;;;;;;;;;;6274444;22;20533;-89
2023/03/25 12:40:05;;;;;;;1.25;0.85;;;;;;;;;;6274371;22;20190;-90
2023/03/25 12:43:11;;;;;;;4.35;0.90;;;;;;;;;;6291835;22;20497;-90
2023/03/25 12:46:23;;;;;;;2.22;1.08;;;;;;;;;;6292759;22;20499;-89
2023/03/25 12:49:35;;;;;;;1.48;0.90;;;;;;;;;;6293076;22;20252;-88
2023/03/25 12:52:44;;;;;;;1.55;0.80;;;;;;;;;;6293165;22;20169;-89
2023/03/25 12:55:55;;;;;;;2.90;1.33;;;;;;;;;;6293368;22;20248;-90
2023/03/25 12:59:19;;;;;;;2.15;0.82;;;;;;;;;;6277057;22;20269;-91
2023/03/25 13:06:18;;;;;;;1.15;0.68;;;;;;;;;;6294961;22;20185;-89
2023/03/25 13:09:26;;;;;;;1.75;0.90;;;;;;;;;;6293770;22;20169;-92
2023/03/25 13:12:36;;;;;;;3.40;0.95;;;;;;;;;;6294450;22;20206;-92
2023/03/25 13:15:47;;;;;;;1.50;0.88;;;;;;;;;;6293376;22;20166;-90
2023/03/25 13:18:56;;;;;;;2.42;0.65;;;;;;;;;;6294729;22;20217;-90
2023/03/25 13:22:43;;;;;;;1.55;0.60;;;;;;;;;;6294619;22;20170;-89
2023/03/25 13:25:52;;;;;;;2.75;0.80;;;;;;;;;;6292505;22;20149;-88
2023/03/25 13:29:02;;;;;;;2.67;0.65;;;;;;;;;;6293985;22;20253;-90
2023/03/25 13:32:10;;;;;;;2.75;0.98;;;;;;;;;;6294620;22;20169;-90
2023/03/25 13:35:17;;;;;;;7.20;0.98;;;;;;;;;;6275299;22;20269;-90
2023/03/25 13:38:31;;;;;;;3.17;0.80;;;;;;;;;;6292969;22;20193;-90
2023/03/25 13:41:39;;;;;;;2.78;0.80;;;;;;;;;;6294976;22;20193;-90
2023/03/25 13:44:47;;;;;;;2.42;0.90;;;;;;;;;;6293141;22;20209;-92
2023/03/25 13:47:55;;;;;;;3.85;0.70;;;;;;;;;;6294002;22;20209;-90
2023/03/25 13:51:03;;;;;;;2.17;0.80;;;;;;;;;;6295083;22;20161;-90
2023/03/25 13:54:11;;;;;;;2.40;0.70;;;;;;;;;;6293985;22;20211;-90
2023/03/25 13:57:32;;;;;;;5.03;1.00;;;;;;;;;;6292266;22;20182;-87
2023/03/25 14:00:48;;;;;;;2.17;0.75;;;;;;;;;;6293670;22;20194;-89
2023/03/25 14:04:03;;;;;;;2.70;0.52;;;;;;;;;;6292920;22;20153;-89
2023/03/25 14:07:42;;;;;;;1.08;0.60;;;;;;;;;;6293669;22;20197;-91
2023/03/25 14:10:50;;;;;;;3.85;0.80;;;;;;;;;;6198889;23;20221;-90
2023/03/25 14:14:14;;;;;;;1.63;0.90;;;;;;;;;;6183216;23;20245;-90
2023/03/25 14:17:22;;;;;;;3.72;0.90;;;;;;;;;;6183438;23;20168;-90
2023/03/25 14:20:47;;;;;;;3.10;0.77;;;;;;;;;;6183670;23;20212;-91
2023/03/25 14:24:01;;;;;;;1.38;0.57;;;;;;;;;;6184701;23;20221;-91
2023/03/25 14:27:09;;;;;;;2.58;0.90;;;;;;;;;;6189051;22;20151;-89
2023/03/25 14:30:19;;;;;;;4.93;1.10;;;;;;;;;;6293431;22;20174;-89
2023/03/25 14:33:27;;;;;;;5.03;1.15;;;;;;;;;;6292633;22;20272;-90
2023/03/25 14:36:54;;;;;;;9.52;1.48;;;;;;;;;;6291746;22;20169;-90
2023/03/25 14:40:01;;;;;;;5.00;1.02;;;;;;;;;;6291826;22;20203;-91
2023/03/25 14:43:19;;;;;;;1.70;0.70;;;;;;;;;;6274651;22;20238;-89
2023/03/25 14:46:24;;;;;;;1.25;0.60;;;;;;;;;;6291764;22;20242;-91
2023/03/25 14:49:44;;;;;;;2.65;1.00;;;;;;;;;;6292024;22;20174;-90
2023/03/25 14:52:52;;;;;;;1.52;0.70;;;;;;;;;;6273502;22;20219;-89
2023/03/25 14:56:01;;;;;;;1.40;0.63;;;;;;;;;;6291916;22;20185;-88
2023/03/25 14:59:09;;;;;;;2.10;0.80;;;;;;;;;;6292904;22;20228;-90
2023/03/25 15:02:18;;;;;;;4.45;2.10;;;;;;;;;;6291286;22;20201;-90
2023/03/25 15:05:26;;;;;;;1.75;0.80;;;;;;;;;;6291406;22;20166;-89
2023/03/25 15:08:35;;;;;;;1.35;0.88;;;;;;;;;;6291564;22;20768;-89
2023/03/25 15:11:42;;;;;;;3.63;1.17;;;;;;;;;;6290784;22;20181;-89
2023/03/25 15:14:56;;;;;;;3.55;0.80;;;;;;;;;;6289694;22;20182;-91
2023/03/25 15:18:01;;;;;;;1.80;1.10;;;;;;;;;;6290843;22;20215;-90
2023/03/25 15:21:11;;;;;;;3.97;0.70;;;;;;;;;;6272075;22;20197;-92
2023/03/25 15:24:22;;;;;;;1.15;0.70;;;;;;;;;;6290469;22;20215;-91
2023/03/25 15:27:43;;;;;;;2.95;0.80;;;;;;;;;;6291525;22;20162;-90
2023/03/25 15:31:02;;;;;;;4.53;0.82;;;;;;;;;;6289786;22;20563;-92
2023/03/25 15:34:12;;;;;;;5.05;1.02;;;;;;;;;;6272337;22;20246;-91
2023/03/25 15:37:32;;;;;;;1.70;0.93;;;;;;;;;;6290716;22;20239;-89
2023/03/25 15:40:46;;;;;;;1.42;0.80;;;;;;;;;;6272140;22;20193;-91
2023/03/25 15:44:02;;;;;;;4.03;1.10;;;;;;;;;;6290434;22;20170;-88
2023/03/25 15:47:18;;;;;;;2.00;1.00;;;;;;;;;;6291697;22;20162;-89
2023/03/25 15:50:48;;;;;;;4.45;0.93;;;;;;;;;;6292242;22;20170;-89
2023/03/25 15:54:23;;;;;;;2.35;0.80;;;;;;;;;;6273330;22;20166;-91
2023/03/25 15:57:32;;;;;;;3.03;1.55;;;;;;;;;;6153930;22;20172;-90
2023/03/25 16:00:40;;;;;;;4.75;2.30;;;;;;;;;;6290077;22;20240;-90
2023/03/25 16:03:46;;;;;;;5.18;1.90;;;;;;;;;;6291516;22;20166;-90
2023/03/25 16:06:53;;;;;;;3.55;1.48;;;;;;;;;;6291205;22;20180;-91
2023/03/25 16:10:06;;;;;;;2.00;1.33;;;;;;;;;;6288656;22;20218;-90
2023/03/25 16:13:15;;;;;;;2.92;1.58;;;;;;;;;;6289487;22;20169;-89
2023/03/25 16:16:20;;;;;;;5.50;2.63;;;;;;;;;;6289274;22;20193;-91
2023/03/25 16:19:27;;;;;;;6.40;2.00;;;;;;;;;;6270654;22;20170;-89
2023/03/25 16:26:34;;;;;;;2.47;1.10;;;;;;;;;;6289594;22;20201;-90
2023/03/25 16:29:48;;;;;;;3.45;1.23;;;;;;;;;;6289797;22;20302;-93
2023/03/25 16:32:53;;;;;;;6.47;1.42;;;;;;;;;;6293767;22;20264;-89
2023/03/25 16:39:20;;;;;;;3.28;0.93;;;;;;;;;;6276122;22;20177;-89
2023/03/25 16:42:32;;;;;;;4.18;1.35;;;;;;;;;;6292983;22;20196;-91
2023/03/25 16:45:39;;;;;;;2.17;1.13;;;;;;;;;;6291162;22;20170;-88
2023/03/25 16:48:49;;;;;;;13.30;2.70;;;;;;;;;;6273744;22;20176;-86
2023/03/25 16:51:55;;;;;;;2.05;0.63;;;;;;;;;;6291065;22;20177;-90
2023/03/25 16:55:20;;;;;;;0.30;0.30;;;;;;;;;;6293955;22;20209;-90
2023/03/25 16:58:30;;;;;;;0.30;0.30;;;;;;;;;;6291052;22;20223;-89
2023/03/25 17:01:40;;;;;;;0.40;0.40;;;;;;;;;;6290002;22;20193;-89
2023/03/25 17:04:44;;;;;;;0.30;0.30;;;;;;;;;;6291641;22;20157;-89
2023/03/25 17:07:51;;;;;;;0.57;0.40;;;;;;;;;;6291355;22;20173;-90
2023/03/25 17:10:58;;;;;;;0.30;0.30;;;;;;;;;;6292295;22;20172;-89
2023/03/25 17:14:32;;;;;;;0.43;0.43;;;;;;;;;;6274538;22;20174;-88
2023/03/25 17:17:42;;;;;;;0.40;0.40;;;;;;;;;;6292168;22;20177;-91
2023/03/25 17:20:55;;;;;;;0.40;0.40;;;;;;;;;;6290818;22;20174;-93
2023/03/25 17:24:02;;;;;;;0.40;0.40;;;;;;;;;;6273733;22;20226;-91
2023/03/25 17:27:18;;;;;;;0.75;0.70;;;;;;;;;;6291568;22;20193;-88
2023/03/25 17:30:39;;;;;;;0.40;0.40;;;;;;;;;;6290408;22;20217;-89
2023/03/25 17:33:49;;;;;;;0.30;0.30;;;;;;;;;;6291540;22;20201;-90
2023/03/25 17:36:58;;;;;;;1.23;0.73;;;;;;;;;;6291635;22;20177;-91
2023/03/25 17:40:10;;;;;;;0.65;0.60;;;;;;;;;;6292116;22;20158;-90
2023/03/25 17:43:19;;;;;;;0.60;0.60;;;;;;;;;;6291260;22;20170;-91
2023/03/25 17:46:25;;;;;;;1.05;0.70;;;;;;;;;;6293229;22;20197;-91
2023/03/25 17:49:34;;;;;;;0.57;0.57;;;;;;;;;;6274690;22;20174;-91
2023/03/25 17:52:39;;;;;;;0.60;0.60;;;;;;;;;;6292031;22;20170;-91
2023/03/25 17:55:46;;;;;;;0.40;0.40;;;;;;;;;;6292265;22;20153;-91
2023/03/25 17:58:52;;;;;;;0.60;0.60;;;;;;;;;;6292296;22;20166;-90
2023/03/25 18:01:57;;;;;;;0.40;0.40;;;;;;;;;;6274731;22;20173;-91
2023/03/25 18:05:06;;;;;;;0.50;0.50;;;;;;;;;;6292349;22;20625;-91
2023/03/25 18:08:13;;;;;;;2.00;1.33;;;;;;;;;;6291280;22;20166;-91
2023/03/25 18:11:18;;;;;;;0.30;0.30;;;;;;;;;;6293118;22;20170;-92
2023/03/25 18:14:24;;;;;;;0.30;0.30;;;;;;;;;;6274980;22;20157;-88
2023/03/25 18:17:30;;;;;;;0.97;0.67;;;;;;;;;;6293686;22;20169;-90
2023/03/25 18:20:38;;;;;;;2.05;0.57;;;;;;;;;;6277029;22;20162;-89
2023/03/25 18:23:46;;;;;;;0.50;0.50;;;;;;;;;;6293518;22;20170;-89
2023/03/25 18:26:52;;;;;;;0.40;0.40;;;;;;;;;;6273690;22;20166;-92
2023/03/25 18:29:57;;;;;;;7.95;1.73;;;;;;;;;;6290865;22;20162;-91
2023/03/25 18:33:02;;;;;;;1.30;1.03;;;;;;;;;;6272275;22;20177;-91
2023/03/25 18:36:10;;;;;;;0.40;0.40;;;;;;;;;;6291482;22;20509;-90
2023/03/25 18:39:16;;;;;;;16.17;1.37;;;;;;;;;;6291061;22;20188;-91
2023/03/25 18:42:22;;;;;;;0.60;0.60;;;;;;;;;;6288668;22;20193;-89
2023/03/25 18:45:27;;;;;;;1.67;1.57;;;;;;;;;;6289489;22;20663;-88
2023/03/25 18:48:33;;;;;;;1.23;1.13;;;;;;;;;;6288882;22;20158;-89
2023/03/25 18:51:40;;;;;;;0.33;0.33;;;;;;;;;;6272296;22;20629;-90
2023/03/25 18:54:45;;;;;;;1.23;0.90;;;;;;;;;;6273019;22;20170;-90
2023/03/25 18:57:55;;;;;;;0.40;0.40;;;;;;;;;;6291392;22;20160;-91
2023/03/25 19:01:08;;;;;;;0.47;0.47;;;;;;;;;;6290175;22;20153;-92
2023/03/25 19:04:13;;;;;;;0.77;0.77;;;;;;;;;;6271313;22;20150;-92
2023/03/25 19:07:20;;;;;;;0.30;0.30;;;;;;;;;;6288158;22;20370;-90
2023/03/25 19:10:27;;;;;;;1.13;1.03;;;;;;;;;;6289108;22;20166;-91
2023/03/25 19:13:32;;;;;;;1.17;0.70;;;;;;;;;;6269965;22;20196;-92
2023/03/25 19:16:38;;;;;;;0.90;0.90;;;;;;;;;;6289513;22;20286;-91